createdAt,value
2023-01-09T00:01:48.889Z,99592.70
2023-01-09T00:04:19.293Z,99593.92
2023-01-09T00:06:54.214Z,99598.02
2023-01-09T00:09:25.040Z,99596.02
2023-01-09T00:11:55.046Z,99583.29
2023-01-09T00:14:24.186Z,99579.34
2023-01-09T00:16:55.959Z,99577.38
2023-01-09T00:19:23.287Z,99571.32
2023-01-09T00:21:51.513Z,99574.05
2023-01-09T00:24:19.904Z,99574.98
2023-01-09T00:26:48.338Z,99575.84
2023-01-09T00:29:16.775Z,99571.22
2023-01-09T00:31:45.141Z,99564.44
2023-01-09T00:34:13.602Z,99562.10
2023-01-09T00:36:42.065Z,99559.94
2023-01-09T00:39:12.053Z,99556.61
2023-01-09T00:41:49.218Z,99550.62
2023-01-09T00:44:34.942Z,99543.65
2023-01-09T00:47:15.751Z,99541.73
2023-01-09T00:49:47.434Z,99542.20
2023-01-09T00:52:18.880Z,99536.99
2023-01-09T00:54:50.203Z,99529.46
2023-01-09T00:57:20.057Z,99520.73
2023-01-09T00:59:50.418Z,99515.00
2023-01-09T01:02:20.510Z,99511.48
2023-01-09T01:05:08.960Z,99513.09
2023-01-09T01:07:38.792Z,99510.11
2023-01-09T01:10:20.458Z,99514.16
2023-01-09T01:12:51.987Z,99509.96
2023-01-09T01:15:22.077Z,99511.09
2023-01-09T01:17:51.851Z,99511.88
2023-01-09T01:20:22.021Z,99506.86
2023-01-09T01:22:51.755Z,99503.77
2023-01-09T01:25:22.751Z,99502.55
2023-01-09T01:27:52.866Z,99497.42
2023-01-09T01:30:22.762Z,99500.52
2023-01-09T01:32:52.478Z,99498.88
2023-01-09T01:35:22.602Z,99499.29
2023-01-09T01:37:52.772Z,99492.40
2023-01-09T01:40:22.529Z,99496.96
2023-01-09T01:42:55.034Z,99499.55
2023-01-09T01:45:26.941Z,99499.05
2023-01-09T01:48:05.898Z,99496.98
2023-01-09T01:51:05.078Z,99486.36
2023-01-09T01:53:42.103Z,99484.36
2023-01-09T01:56:24.557Z,99479.55
2023-01-09T01:59:13.021Z,99473.23
2023-01-09T02:01:49.143Z,99470.27
2023-01-09T02:04:20.258Z,99468.52
2023-01-09T02:06:54.014Z,99463.52
2023-01-09T02:09:26.728Z,99464.62
2023-01-09T02:11:58.778Z,99466.45
2023-01-09T02:14:32.487Z,99465.40
2023-01-09T02:17:41.420Z,99467.86
2023-01-09T02:20:38.524Z,99472.64
2023-01-09T02:23:40.341Z,99469.05
2023-01-09T02:26:28.596Z,99468.34
2023-01-09T02:29:45.960Z,99468.39
2023-01-09T02:32:49.418Z,99475.30
2023-01-09T02:35:52.510Z,99474.39
2023-01-09T02:39:05.817Z,99472.98
2023-01-09T02:41:55.497Z,99469.01
2023-01-09T02:44:32.553Z,99469.59
2023-01-09T02:47:29.309Z,99472.04
2023-01-09T02:50:02.454Z,99472.73
2023-01-09T02:53:03.677Z,99467.75
2023-01-09T02:55:58.660Z,99465.70
2023-01-09T02:59:11.108Z,99462.23
2023-01-09T03:02:29.509Z,99455.86
2023-01-09T03:05:11.902Z,99451.10
2023-01-09T03:07:51.027Z,99447.47
2023-01-09T03:11:02.384Z,99440.40
2023-01-09T03:13:53.429Z,99436.96
2023-01-09T03:16:35.540Z,99436.38
2023-01-09T03:19:12.978Z,99432.98
2023-01-09T03:21:44.818Z,99426.63
2023-01-09T03:24:14.449Z,99423.70
2023-01-09T03:26:43.095Z,99417.90
2023-01-09T03:29:10.979Z,99418.48
2023-01-09T03:31:39.608Z,99420.45
2023-01-09T03:34:08.215Z,99419.12
2023-01-09T03:36:36.217Z,99413.64
2023-01-09T03:39:04.841Z,99414.94
2023-01-09T03:41:33.487Z,99407.71
2023-01-09T03:44:01.502Z,99403.96
2023-01-09T03:46:29.933Z,99399.02
2023-01-09T03:48:58.927Z,99395.80
2023-01-09T03:51:26.854Z,99392.59
2023-01-09T03:53:55.632Z,99389.91
2023-01-09T03:56:25.437Z,99385.30
2023-01-09T03:58:55.463Z,99384.30
2023-01-09T04:01:23.647Z,99382.95
2023-01-09T04:03:52.069Z,99383.49
2023-01-09T04:06:20.419Z,99383.89
2023-01-09T04:08:48.746Z,99381.15
2023-01-09T04:11:18.235Z,99378.75
2023-01-09T04:13:45.624Z,99373.37
2023-01-09T04:16:14.086Z,99374.95
2023-01-09T04:18:42.667Z,99379.14
2023-01-09T04:21:10.978Z,99381.10
2023-01-09T04:23:39.461Z,99380.80
2023-01-09T04:26:07.991Z,99379.42
2023-01-09T04:28:36.456Z,99379.99
2023-01-09T04:31:05.282Z,99379.88
2023-01-09T04:33:33.064Z,99375.38
2023-01-09T04:36:01.503Z,99374.86
2023-01-09T04:38:30.135Z,99373.16
2023-01-09T04:40:58.594Z,99367.96
2023-01-09T04:43:26.800Z,99369.03
2023-01-09T04:45:55.411Z,99369.23
2023-01-09T04:48:23.735Z,99367.38
2023-01-09T04:50:52.139Z,99365.31
2023-01-09T04:53:20.563Z,99357.86
2023-01-09T04:55:49.048Z,99357.71
2023-01-09T04:58:17.421Z,99357.56
2023-01-09T05:00:45.954Z,99356.02
2023-01-09T05:03:14.230Z,99353.44
2023-01-09T05:05:42.890Z,99353.65
2023-01-09T05:08:11.087Z,99347.13
2023-01-09T05:10:39.574Z,99351.86
2023-01-09T05:13:08.087Z,99352.42
2023-01-09T05:15:36.386Z,99353.20
2023-01-09T05:18:05.078Z,99351.00
2023-01-09T05:20:33.223Z,99348.64
2023-01-09T05:23:01.637Z,99342.78
2023-01-09T05:25:30.195Z,99342.11
2023-01-09T05:27:59.839Z,99337.95
2023-01-09T05:30:27.924Z,99338.66
2023-01-09T05:32:55.598Z,99338.13
2023-01-09T05:35:23.924Z,99338.30
2023-01-09T05:37:52.265Z,99332.94
2023-01-09T05:40:21.796Z,99335.38
2023-01-09T05:42:49.421Z,99337.20
2023-01-09T05:45:17.851Z,99331.83
2023-01-09T05:47:46.199Z,99332.36
2023-01-09T05:50:15.570Z,99326.53
2023-01-09T05:52:42.829Z,99324.63
2023-01-09T05:55:12.744Z,99326.20
2023-01-09T05:57:40.235Z,99320.11
2023-01-09T06:00:09.351Z,99313.67
2023-01-09T06:02:36.734Z,99315.09
2023-01-09T06:05:05.771Z,99315.09
2023-01-09T06:07:36.520Z,99313.71
2023-01-09T06:10:11.620Z,99307.45
2023-01-09T06:12:46.399Z,99306.92
2023-01-09T06:15:15.931Z,99311.81
2023-01-09T06:17:44.651Z,99304.50
2023-01-09T06:20:14.402Z,99305.20
2023-01-09T06:22:45.367Z,99302.06
2023-01-09T06:25:13.735Z,99299.98
2023-01-09T06:27:41.503Z,99297.02
2023-01-09T06:30:11.415Z,99293.86
2023-01-09T06:32:38.237Z,99295.07
2023-01-09T06:35:07.552Z,99295.06
2023-01-09T06:37:35.249Z,99291.55
2023-01-09T06:40:04.555Z,99295.38
2023-01-09T06:42:32.257Z,99292.75
2023-01-09T06:45:00.612Z,99286.30
2023-01-09T06:47:29.081Z,99282.98
2023-01-09T06:49:58.244Z,99282.30
2023-01-09T06:52:25.967Z,99280.75
2023-01-09T06:54:54.417Z,99279.52
2023-01-09T06:57:22.787Z,99274.66
2023-01-09T06:59:51.287Z,99267.70
2023-01-09T07:02:22.392Z,99264.58
2023-01-09T07:04:51.489Z,99267.88
2023-01-09T07:07:22.226Z,99270.85
2023-01-09T07:09:51.422Z,99275.74
2023-01-09T07:12:20.253Z,99266.58
2023-01-09T07:14:48.765Z,99271.62
2023-01-09T07:17:16.789Z,99263.63
2023-01-09T07:19:45.125Z,99260.34
2023-01-09T07:22:13.609Z,99262.46
2023-01-09T07:24:44.297Z,99262.52
2023-01-09T07:27:14.135Z,99268.11
2023-01-09T07:29:43.902Z,99270.22
2023-01-09T07:32:13.751Z,99275.83
2023-01-09T07:34:43.533Z,99281.06
2023-01-09T07:37:13.276Z,99282.98
2023-01-09T07:39:43.639Z,99280.23
2023-01-09T07:42:15.907Z,99279.06
2023-01-09T07:44:45.669Z,99277.16
2023-01-09T07:47:15.496Z,99279.62
2023-01-09T07:49:45.284Z,99282.61
2023-01-09T07:52:15.079Z,99283.99
2023-01-09T07:54:44.836Z,99284.03
2023-01-09T07:57:14.714Z,99287.35
2023-01-09T07:59:44.459Z,99286.48
2023-01-09T08:02:14.222Z,99290.68
2023-01-09T08:04:42.776Z,99292.80
2023-01-09T08:07:11.117Z,99297.02
2023-01-09T08:09:39.565Z,99302.95
2023-01-09T08:12:11.962Z,99306.65
2023-01-09T08:14:39.218Z,99310.00
2023-01-09T08:17:09.512Z,99307.95
2023-01-09T08:19:40.173Z,99310.44
2023-01-09T08:22:10.521Z,99309.25
2023-01-09T08:24:40.243Z,99309.98
2023-01-09T08:27:10.042Z,99311.95
2023-01-09T08:29:39.764Z,99309.41
2023-01-09T08:32:09.623Z,99308.21
2023-01-09T08:34:39.475Z,99311.38
2023-01-09T08:37:09.271Z,99305.16
2023-01-09T08:39:39.064Z,99313.90
2023-01-09T08:42:30.073Z,99318.30
2023-01-09T08:45:18.558Z,99319.38
2023-01-09T08:47:48.523Z,99321.70
2023-01-09T08:50:18.434Z,99320.54
2023-01-09T08:52:48.290Z,99325.45
2023-01-09T08:55:18.068Z,99333.13
2023-01-09T08:57:53.642Z,99336.62
2023-01-09T09:00:25.079Z,99334.71
2023-01-09T09:02:59.273Z,99334.39
2023-01-09T09:05:32.448Z,99330.23
2023-01-09T09:08:03.578Z,99329.92
2023-01-09T09:10:33.333Z,99329.42
2023-01-09T09:13:01.991Z,99329.96
2023-01-09T09:15:30.427Z,99333.32
2023-01-09T09:18:06.963Z,99336.29
2023-01-09T09:20:39.405Z,99343.98
2023-01-09T09:23:09.313Z,99344.38
2023-01-09T09:25:39.377Z,99346.99
2023-01-09T09:28:10.067Z,99349.11
2023-01-09T09:30:39.936Z,99351.26
2023-01-09T09:33:08.373Z,99345.91
2023-01-09T09:35:37.784Z,99348.60
2023-01-09T09:38:06.115Z,99351.29
2023-01-09T09:41:52.615Z,99353.10
2023-01-09T09:44:52.653Z,99359.29
2023-01-09T09:47:46.838Z,99359.68
2023-01-09T09:50:31.948Z,99363.23
2023-01-09T09:53:40.598Z,99369.92
2023-01-09T09:56:16.717Z,99375.65
2023-01-09T09:58:54.249Z,99380.55
2023-01-09T10:02:04.805Z,99378.67
2023-01-09T10:04:43.071Z,99376.80
2023-01-09T10:07:30.979Z,99375.84
2023-01-09T10:10:05.816Z,99372.25
2023-01-09T10:12:57.557Z,99365.69
2023-01-09T10:15:35.519Z,99365.42
2023-01-09T10:18:30.844Z,99368.60
2023-01-09T10:21:30.852Z,99379.52
2023-01-09T10:24:34.971Z,99382.00
2023-01-09T10:27:25.116Z,99387.45
2023-01-09T10:30:28.195Z,99392.39
2023-01-09T10:33:47.689Z,99393.45
2023-01-09T10:37:09.349Z,99389.26
2023-01-09T10:40:09.026Z,99383.53
2023-01-09T10:42:49.972Z,99385.14
2023-01-09T10:45:27.779Z,99393.52
2023-01-09T10:48:31.036Z,99397.73
2023-01-09T10:50:59.764Z,99397.08
2023-01-09T10:53:47.596Z,99400.11
2023-01-09T10:56:26.350Z,99403.64
2023-01-09T10:58:56.920Z,99413.08
2023-01-09T11:01:33.811Z,99423.90
2023-01-09T11:04:25.753Z,99427.77
2023-01-09T11:07:29.099Z,99431.29
2023-01-09T11:10:15.344Z,99433.56
2023-01-09T11:12:43.344Z,99427.29
2023-01-09T11:15:16.088Z,99426.11
2023-01-09T11:17:48.047Z,99435.02
2023-01-09T11:20:22.545Z,99439.38
2023-01-09T11:22:56.473Z,99440.60
2023-01-09T11:25:29.286Z,99446.54
2023-01-09T11:28:01.740Z,99449.50
2023-01-09T11:30:36.324Z,99452.48
2023-01-09T11:33:20.938Z,99455.29
2023-01-09T11:36:11.269Z,99466.27
2023-01-09T11:38:56.034Z,99466.79
2023-01-09T11:41:35.145Z,99471.16
2023-01-09T11:44:05.488Z,99469.94
2023-01-09T11:46:42.548Z,99463.34
2023-01-09T11:49:13.706Z,99455.32
2023-01-09T11:51:43.836Z,99454.66
2023-01-09T11:54:30.863Z,99463.64
2023-01-09T11:57:00.773Z,99473.63
2023-01-09T11:59:31.635Z,99475.92
2023-01-09T12:02:24.052Z,99485.88
2023-01-09T12:05:21.752Z,99488.52
2023-01-09T12:08:39.135Z,99494.71
2023-01-09T12:11:35.067Z,99499.96
2023-01-09T12:15:03.028Z,99513.83
2023-01-09T12:18:02.837Z,99513.20
2023-01-09T12:20:57.760Z,99515.66
2023-01-09T12:23:43.416Z,99514.61
2023-01-09T12:26:42.569Z,99502.83
2023-01-09T12:30:01.484Z,99493.99
2023-01-09T12:32:46.101Z,99499.48
2023-01-09T12:35:46.444Z,99499.63
2023-01-09T12:38:41.502Z,99501.20
2023-01-09T12:41:45.524Z,99502.76
2023-01-09T12:44:35.976Z,99508.20
2023-01-09T12:47:46.064Z,99500.58
2023-01-09T12:50:34.391Z,99503.09
2023-01-09T12:53:16.026Z,99502.48
2023-01-09T12:56:24.142Z,99510.29
2023-01-09T12:59:15.067Z,99509.83
2023-01-09T13:01:51.317Z,99513.36
2023-01-09T13:04:37.111Z,99511.59
2023-01-09T13:07:19.831Z,99512.11
2023-01-09T13:10:02.483Z,99514.21
2023-01-09T13:12:39.544Z,99516.83
2023-01-09T13:15:27.484Z,99517.90
2023-01-09T13:18:14.082Z,99520.86
2023-01-09T13:20:56.612Z,99516.27
2023-01-09T13:24:02.172Z,99511.95
2023-01-09T13:26:47.523Z,99514.55
2023-01-09T13:29:45.601Z,99516.29
2023-01-09T13:32:34.532Z,99512.26
2023-01-09T13:35:04.886Z,99516.23
2023-01-09T13:37:37.066Z,99513.27
2023-01-09T13:40:27.854Z,99508.58
2023-01-09T13:43:09.672Z,99511.69
2023-01-09T13:45:40.423Z,99513.59
2023-01-09T13:48:17.633Z,99520.04
2023-01-09T13:50:47.741Z,99524.15
2023-01-09T13:53:42.988Z,99534.57
2023-01-09T13:56:14.469Z,99540.39
2023-01-09T13:59:02.520Z,99551.64
2023-01-09T14:01:37.372Z,99562.85
2023-01-09T14:04:09.826Z,99567.70
2023-01-09T14:06:39.907Z,99577.27
2023-01-09T14:09:22.839Z,99581.63
2023-01-09T14:12:21.081Z,99584.60
2023-01-09T14:14:55.153Z,99584.09
2023-01-09T14:17:35.263Z,99588.45
2023-01-09T14:20:23.785Z,99590.19
2023-01-09T14:23:18.113Z,99593.87
2023-01-09T14:25:51.963Z,99597.96
2023-01-09T14:28:29.642Z,99594.77
2023-01-09T14:30:59.351Z,99599.30
2023-01-09T14:33:32.659Z,99606.41
2023-01-09T14:36:21.531Z,99611.66
2023-01-09T14:39:03.676Z,99618.10
2023-01-09T14:42:04.657Z,99623.66
2023-01-09T14:44:50.845Z,99627.52
2023-01-09T14:47:39.421Z,99630.67
2023-01-09T14:50:17.497Z,99632.23
2023-01-09T14:53:02.336Z,99632.41
2023-01-09T14:55:41.036Z,99637.82
2023-01-09T14:58:32.927Z,99642.50
2023-01-09T15:01:16.922Z,99648.05
2023-01-09T15:03:58.799Z,99647.69
2023-01-09T15:06:37.051Z,99651.09
2023-01-09T15:09:28.307Z,99650.33
2023-01-09T15:12:09.965Z,99651.32
2023-01-09T15:14:45.647Z,99653.33
2023-01-09T15:17:35.894Z,99658.13
2023-01-09T15:20:07.891Z,99667.94
2023-01-09T15:22:38.118Z,99666.10
2023-01-09T15:25:38.455Z,99666.54
2023-01-09T15:28:27.290Z,99673.56
2023-01-09T15:31:12.358Z,99676.44
2023-01-09T15:33:46.602Z,99676.98
2023-01-09T15:36:28.711Z,99681.16
2023-01-09T15:39:00.026Z,99684.48
2023-01-09T15:41:50.597Z,99683.63
2023-01-09T15:44:27.783Z,99680.83
2023-01-09T15:47:00.511Z,99685.55
2023-01-09T15:49:32.528Z,99687.30
2023-01-09T15:52:04.502Z,99689.29
2023-01-09T15:54:35.269Z,99696.20
2023-01-09T15:57:27.062Z,99698.63
2023-01-09T16:00:17.632Z,99703.71
2023-01-09T16:03:06.490Z,99704.46
2023-01-09T16:05:52.039Z,99713.54
2023-01-09T16:08:25.921Z,99721.05
2023-01-09T16:11:02.267Z,99723.95
2023-01-09T16:13:43.142Z,99727.84
2023-01-09T16:16:33.761Z,99721.98
2023-01-09T16:19:02.364Z,99723.30
2023-01-09T16:21:38.467Z,99724.70
2023-01-09T16:24:14.208Z,99729.32
2023-01-09T16:26:44.029Z,99730.17
2023-01-09T16:29:35.663Z,99732.70
2023-01-09T16:32:07.045Z,99727.38
2023-01-09T16:34:42.332Z,99720.83
2023-01-09T16:37:14.096Z,99713.60
2023-01-09T16:40:18.534Z,99721.25
2023-01-09T16:43:01.119Z,99729.52
2023-01-09T16:45:36.431Z,99732.35
2023-01-09T16:48:16.220Z,99738.18
2023-01-09T16:50:47.137Z,99745.08
2023-01-09T16:53:27.287Z,99742.80
2023-01-09T16:55:58.337Z,99746.33
2023-01-09T16:58:35.629Z,99747.17
2023-01-09T17:01:06.838Z,99749.11
2023-01-09T17:03:33.700Z,99755.48
2023-01-09T17:06:04.619Z,99753.66
2023-01-09T17:08:37.090Z,99753.89
2023-01-09T17:11:13.953Z,99752.85
2023-01-09T17:13:43.693Z,99747.77
2023-01-09T17:16:15.930Z,99743.58
2023-01-09T17:18:45.785Z,99744.84
2023-01-09T17:21:21.139Z,99748.18
2023-01-09T17:24:10.031Z,99749.21
2023-01-09T17:27:03.475Z,99750.29
2023-01-09T17:29:35.187Z,99753.96
2023-01-09T17:32:05.537Z,99753.58
2023-01-09T17:34:35.484Z,99746.50
2023-01-09T17:37:05.334Z,99751.29
2023-01-09T17:39:35.150Z,99755.33
2023-01-09T17:42:10.076Z,99760.23
2023-01-09T17:45:47.962Z,99769.52
2023-01-09T17:48:22.007Z,99766.30
2023-01-09T17:50:49.655Z,99764.20
2023-01-09T17:53:19.842Z,99762.27
2023-01-09T17:55:49.276Z,99768.80
2023-01-09T17:58:30.315Z,99768.85
2023-01-09T18:01:00.229Z,99777.98
2023-01-09T18:03:33.389Z,99782.48
2023-01-09T18:06:03.385Z,99783.94
2023-01-09T18:08:32.570Z,99785.01
2023-01-09T18:11:04.971Z,99789.54
2023-01-09T18:13:34.344Z,99790.20
2023-01-09T18:16:09.290Z,99786.99
2023-01-09T18:18:40.160Z,99786.94
2023-01-09T18:21:09.474Z,99790.94
2023-01-09T18:23:39.204Z,99792.91
2023-01-09T18:26:11.358Z,99796.26
2023-01-09T18:28:41.053Z,99804.53
2023-01-09T18:31:11.315Z,99802.61
2023-01-09T18:33:41.470Z,99806.22
2023-01-09T18:36:11.552Z,99809.95
2023-01-09T18:38:42.697Z,99812.44
2023-01-09T18:41:12.372Z,99821.84
2023-01-09T18:43:42.180Z,99824.92
2023-01-09T18:46:11.997Z,99827.98
2023-01-09T18:48:41.880Z,99829.91
2023-01-09T18:51:11.614Z,99834.80
2023-01-09T18:53:41.311Z,99841.85
2023-01-09T18:56:11.058Z,99848.55
2023-01-09T18:58:40.907Z,99851.84
2023-01-09T19:14:25.731Z,99877.83
2023-01-09T19:16:59.083Z,99878.55
2023-01-09T19:19:30.272Z,99868.81
2023-01-09T19:22:00.094Z,99874.67
2023-01-09T19:24:32.104Z,99874.65
2023-01-09T19:27:01.877Z,99883.02
2023-01-09T19:29:32.017Z,99885.30
2023-01-09T19:32:01.981Z,99884.58
2023-01-09T19:34:31.902Z,99881.66
2023-01-09T19:37:01.803Z,99880.08
2023-01-09T19:39:32.341Z,99878.01
2023-01-09T19:42:02.119Z,99876.52
2023-01-09T19:44:32.695Z,99875.79
2023-01-09T19:47:02.563Z,99879.27
2023-01-09T19:49:33.098Z,99882.23
2023-01-09T19:52:03.243Z,99879.35
2023-01-09T19:54:33.042Z,99881.30
2023-01-09T19:57:03.079Z,99888.15
2023-01-09T19:59:35.098Z,99884.25
2023-01-09T20:02:05.865Z,99887.68
2023-01-09T20:04:35.650Z,99893.81
2023-01-09T20:07:06.033Z,99893.35
2023-01-09T20:09:35.744Z,99895.49
2023-01-09T20:12:09.107Z,99895.84
2023-01-09T20:14:39.119Z,99896.23
2023-01-09T20:17:09.052Z,99902.80
2023-01-09T20:19:39.453Z,99909.17
2023-01-09T20:22:09.269Z,99910.09
2023-01-09T20:24:37.081Z,99913.61
2023-01-09T20:27:07.378Z,99918.73
2023-01-09T20:29:36.929Z,99923.88
2023-01-09T20:32:06.251Z,99922.46
2023-01-09T20:34:36.336Z,99925.20
2023-01-09T20:37:06.261Z,99930.72
2023-01-09T20:39:36.341Z,99927.36
2023-01-09T20:42:11.874Z,99935.27
2023-01-09T20:44:42.024Z,99942.50
2023-01-09T20:47:12.660Z,99955.38
2023-01-09T20:49:42.377Z,99962.90
2023-01-09T20:52:12.080Z,99973.52
2023-01-09T20:54:42.724Z,99975.90
2023-01-09T20:57:12.623Z,99980.91
2023-01-09T20:59:42.407Z,99980.02
2023-01-09T21:02:15.261Z,99976.27
2023-01-09T21:04:45.051Z,99976.05
2023-01-09T21:07:16.024Z,99981.63
2023-01-09T21:09:46.749Z,99980.09
2023-01-09T21:12:27.655Z,99986.50
2023-01-09T21:15:02.136Z,99987.17
2023-01-09T21:17:40.878Z,99992.16
2023-01-09T21:20:14.983Z,99998.10
2023-01-09T21:22:44.879Z,100005.89
2023-01-09T21:25:16.615Z,100011.19
2023-01-09T21:27:48.689Z,100018.31
2023-01-09T21:30:18.851Z,100025.20
2023-01-09T21:32:48.635Z,100025.23
2023-01-09T21:35:18.545Z,100028.13
2023-01-09T21:37:48.373Z,100031.91
2023-01-09T21:40:18.223Z,100033.55
2023-01-09T21:43:06.854Z,100037.60
2023-01-09T21:45:57.466Z,100044.18
2023-01-09T21:48:26.932Z,100045.65
2023-01-09T21:50:56.735Z,100051.27
2023-01-09T21:53:26.525Z,100053.38
2023-01-09T21:55:56.471Z,100058.46
2023-01-09T21:58:26.264Z,100066.13
2023-01-09T22:01:00.705Z,100068.70
2023-01-09T22:03:30.601Z,100077.77
2023-01-09T22:06:04.612Z,100084.49
2023-01-09T22:08:36.688Z,100090.89
2023-01-09T22:11:05.806Z,100095.42
2023-01-09T22:13:34.285Z,100094.65
2023-01-09T22:16:05.508Z,100098.11
2023-01-09T22:18:36.150Z,100101.16
2023-01-09T22:21:06.279Z,100109.00
2023-01-09T22:23:36.325Z,100109.31
2023-01-09T22:26:12.105Z,100119.17
2023-01-09T22:28:43.139Z,100125.86
2023-01-09T22:31:22.568Z,100130.02
2023-01-09T22:33:54.105Z,100139.85
2023-01-09T22:36:26.501Z,100143.02
2023-01-09T22:38:59.216Z,100148.14
2023-01-09T22:41:30.590Z,100154.46
2023-01-09T22:44:00.400Z,100156.02
2023-01-09T22:46:28.881Z,100158.63
2023-01-09T22:48:57.745Z,100164.34
2023-01-09T22:51:25.785Z,100164.45
2023-01-09T22:53:54.128Z,100168.42
2023-01-09T22:56:22.566Z,100165.93
2023-01-09T22:58:54.031Z,100167.43
2023-01-09T23:01:24.500Z,100172.61
2023-01-09T23:03:54.195Z,100175.65
2023-01-09T23:06:23.585Z,100178.77
2023-01-09T23:08:53.014Z,100186.37
2023-01-09T23:11:49.882Z,100187.05
2023-01-09T23:14:21.818Z,100191.48
2023-01-09T23:16:51.738Z,100197.45
2023-01-09T23:19:22.063Z,100199.90
2023-01-09T23:26:04.835Z,100210.18
2023-01-09T23:28:34.623Z,100211.30
2023-01-09T23:31:05.265Z,100217.37
2023-01-09T23:33:32.740Z,100223.70
2023-01-09T23:36:01.179Z,100229.50
2023-01-09T23:38:29.658Z,100232.38
2023-01-09T23:40:58.167Z,100234.42
2023-01-09T23:43:26.470Z,100237.76
2023-01-09T23:45:54.903Z,100240.11
2023-01-09T23:48:23.247Z,100241.48
2023-01-09T23:50:54.385Z,100241.88
2023-01-09T23:53:23.486Z,100241.20
2023-01-09T23:55:55.369Z,100248.66
2023-01-09T23:58:26.530Z,100253.70
